CDT,Max TemperatureF,Mean TemperatureF,Min TemperatureF,Max Dew PointF,MeanDew PointF,Min DewpointF,Max Humidity, Mean Humidity, Min Humidity, Max Sea Level PressureIn, Mean Sea Level PressureIn, Min Sea Level PressureIn, Max VisibilityMiles, Mean VisibilityMiles, Min VisibilityMiles, Max Wind SpeedMPH, Mean Wind SpeedMPH, Max Gust SpeedMPH,PrecipitationIn, CloudCover, Events, WindDirDegrees
2012-6-1,69,56,42,54,43,34,100,66,28,29.99,29.88,29.77,10,10,10,15,5,20,0.08,2,Rain,218
2012-6-2,77,64,51,55,49,36,100,66,22,29.83,29.79,29.76,10,10,7,15,5,18,0.04,2,Rain,334
2012-6-3,80,66,51,55,51,45,94,56,28,29.83,29.77,29.73,10,10,7,13,4,17,0.00,1,,147
2012-6-4,84,70,55,57,47,30,94,52,14,29.97,29.92,29.82,10,10,7,17,4,23,0.00,0,,353
2012-6-5,84,68,53,54,46,39,88,45,20,30.01,29.97,29.92,10,10,7,13,3,17,0.00,0,,108
2012-6-6,82,72,62,59,54,48,77,53,37,29.98,29.96,29.93,10,10,10,15,8,21,0.00,0,,137
2012-6-7,89,78,66,64,60,55,88,61,33,30.05,29.97,29.90,10,10,10,17,11,25,0.00,2,Rain-Thunderstorm,152
2012-6-8,89,76,64,63,56,48,77,53,24,29.92,29.83,29.70,10,10,10,13,7,17,0.00,1,,209
2012-6-9,91,78,66,57,53,48,64,40,24,29.71,29.61,29.53,10,10,7,22,10,30,0.00,0,,176
2012-6-10,84,72,59,70,59,52,88,63,41,29.74,29.60,29.53,10,10,7,22,11,26,0.07,3,Rain-Thunderstorm,194
2012-6-11,69,60,51,55,46,36,94,59,30,30.08,29.84,29.65,10,10,10,29,14,38,0.00,2,,278
2012-6-12,69,55,41,43,39,36,87,51,31,30.21,30.14,30.06,10,10,7,18,9,25,0.00,1,,297
2012-6-13,77,67,57,55,50,39,94,61,45,30.09,29.93,29.75,10,10,7,16,9,25,0.35,2,Rain,154
2012-6-14,84,74,64,66,56,39,78,56,20,29.88,29.71,29.59,10,10,10,20,13,29,0.00,1,Rain-Thunderstorm,148
2012-6-15,82,70,57,59,54,45,94,60,26,29.99,29.96,29.88,10,10,7,12,2,12,0.00,0,,120
2012-6-16,78,68,57,64,54,37,94,65,23,29.98,29.91,29.85,10,10,7,22,6,30,0.00,1,Rain,279
2012-6-17,82,68,53,66,55,48,88,65,38,29.90,29.68,29.27,10,10,7,52,8,76,0.03,1,Rain-Thunderstorm,166
2012-6-18,86,74,62,66,61,50,100,60,29,29.62,29.51,29.41,10,9,0,17,6,23,0.00,1,Fog,332
2012-6-19,82,72,62,75,65,57,94,83,69,29.70,29.60,29.52,10,10,2,21,11,29,0.69,5,Rain-Thunderstorm,56
2012-6-20,69,64,60,64,61,55,100,86,73,29.90,29.77,29.61,10,10,1,26,10,31,0.99,4,Rain-Thunderstorm,306
2012-6-21,77,66,55,59,53,46,94,67,34,30.05,29.99,29.91,10,10,10,20,10,24,0.00,0,,277
2012-6-22,78,66,53,59,53,46,100,63,32,30.06,29.99,29.91,10,10,10,8,5,,0.00,0,Thunderstorm,261
2012-6-23,82,73,64,66,60,55,88,70,50,29.93,29.86,29.80,10,10,5,15,7,20,0.00,2,Rain-Thunderstorm,119
2012-6-24,84,74,64,66,63,54,100,70,39,30.08,29.99,29.88,10,9,4,16,5,23,0.00,1,,62
2012-6-25,80,68,57,61,53,45,94,57,32,30.15,30.08,29.95,10,10,10,20,9,23,0.00,0,,111
2012-6-26,82,72,62,64,56,48,73,57,42,29.99,29.80,29.62,10,10,7,20,11,28,0.00,0,,142
2012-6-27,87,76,66,73,67,54,88,70,47,29.82,29.65,29.56,10,10,10,14,9,20,0.00,1,,54
2012-6-28,84,72,60,64,51,39,88,50,21,29.98,29.92,29.82,10,10,7,14,7,,0.00,0,,345
2012-6-29,82,70,59,70,62,55,94,71,48,29.92,29.86,29.81,10,10,5,12,3,,0.00,0,Thunderstorm,232
2012-6-30,87,73,59,70,62,55,100,68,35,29.90,29.86,29.82,10,8,0,9,2,,0.00,1,Fog,95